createdAt,value
2018-06-04T00:00:50.816Z,65.51
2018-06-04T00:03:21.354Z,65.87
2018-06-04T00:05:51.945Z,65.98
2018-06-04T00:08:22.520Z,66.18
2018-06-04T00:10:53.136Z,65.80
2018-06-04T00:13:23.696Z,66.05
2018-06-04T00:15:54.304Z,66.25
2018-06-04T00:18:24.863Z,65.84
2018-06-04T00:20:55.436Z,66.59
2018-06-04T00:23:26.099Z,66.18
2018-06-04T00:25:56.642Z,66.59
2018-06-04T00:28:27.258Z,66.78
2018-06-04T00:30:57.845Z,66.57
2018-06-04T00:33:28.474Z,66.79
2018-06-04T00:35:59.088Z,66.66
2018-06-04T00:38:29.679Z,66.88
2018-06-04T00:41:00.285Z,67.06
2018-06-04T00:43:30.975Z,66.66
2018-06-04T00:46:01.595Z,66.90
2018-06-04T00:48:32.340Z,67.11
2018-06-04T00:51:02.950Z,67.42
2018-06-04T00:53:33.523Z,67.61
2018-06-04T00:56:18.363Z,67.58
2018-06-04T00:58:48.962Z,67.19
2018-06-04T01:01:19.608Z,67.92
2018-06-04T01:03:50.224Z,67.85
2018-06-04T01:06:20.773Z,67.91
2018-06-04T01:08:51.356Z,67.88
2018-06-04T01:11:21.949Z,67.71
2018-06-04T01:13:52.521Z,68.08
2018-06-04T01:16:23.141Z,67.83
2018-06-04T01:18:53.694Z,68.06
2018-06-04T01:21:24.293Z,68.14
2018-06-04T01:23:54.900Z,68.60
2018-06-04T01:26:25.490Z,68.47
2018-06-04T01:28:56.080Z,68.47
2018-06-04T01:31:26.677Z,68.74
2018-06-04T01:33:57.231Z,68.92
2018-06-04T01:36:27.820Z,69.31
2018-06-04T01:38:58.502Z,69.65
2018-06-04T01:41:29.118Z,69.18
2018-06-04T01:43:59.711Z,69.18
2018-06-04T01:46:30.296Z,69.32
2018-06-04T01:49:00.958Z,69.29
2018-06-04T01:51:31.543Z,68.89
2018-06-04T01:54:01.818Z,68.57
2018-06-04T01:56:32.289Z,68.41
2018-06-04T01:59:02.923Z,68.63
2018-06-04T02:01:33.522Z,68.32
2018-06-04T02:04:04.101Z,68.93
2018-06-04T02:06:34.730Z,68.55
2018-06-04T02:09:07.110Z,69.02
2018-06-04T02:11:37.743Z,69.23
2018-06-04T02:14:08.381Z,69.21
2018-06-04T02:16:39.048Z,69.14
2018-06-04T02:19:09.632Z,69.08
2018-06-04T02:21:40.308Z,68.98
2018-06-04T02:24:11.161Z,68.98
2018-06-04T02:26:41.733Z,69.35
2018-06-04T02:29:12.326Z,69.67
2018-06-04T02:31:42.906Z,69.49
2018-06-04T02:34:13.489Z,70.03
2018-06-04T02:36:44.028Z,70.12
2018-06-04T02:39:14.729Z,70.29
2018-06-04T02:41:45.327Z,70.56
2018-06-04T02:44:15.917Z,70.15
2018-06-04T02:46:46.507Z,70.94
2018-06-04T02:49:17.094Z,70.25
2018-06-04T02:51:47.737Z,70.49
2018-06-04T02:54:18.375Z,70.26
2018-06-04T02:56:48.939Z,70.71
2018-06-04T02:59:19.527Z,70.89
2018-06-04T03:01:50.094Z,71.01
2018-06-04T03:04:20.689Z,70.96
2018-06-04T03:06:51.314Z,71.11
2018-06-04T03:09:21.927Z,70.83
2018-06-04T03:11:52.548Z,71.08
2018-06-04T03:14:23.114Z,71.05
2018-06-04T03:16:53.718Z,71.31
2018-06-04T03:19:24.370Z,71.11
2018-06-04T03:21:54.995Z,71.34
2018-06-04T03:24:25.660Z,71.31
2018-06-04T03:26:56.308Z,71.10
2018-06-04T03:29:26.941Z,70.97
2018-06-04T03:31:57.494Z,71.14
2018-06-04T03:34:28.141Z,71.30
2018-06-04T03:36:58.769Z,71.36
2018-06-04T03:39:29.372Z,71.55
2018-06-04T03:41:59.981Z,70.96
2018-06-04T03:44:30.660Z,71.10
2018-06-04T03:47:01.312Z,71.63
2018-06-04T03:49:31.955Z,71.55
2018-06-04T03:52:02.508Z,71.70
2018-06-04T03:54:33.178Z,71.51
2018-06-04T03:57:03.810Z,71.78
2018-06-04T03:59:34.447Z,71.47
2018-06-04T04:02:05.124Z,71.57
2018-06-04T04:04:35.750Z,71.29
2018-06-04T04:07:06.349Z,71.34
2018-06-04T04:09:36.974Z,71.33
2018-06-04T04:12:07.628Z,71.57
2018-06-04T04:14:38.255Z,71.19
2018-06-04T04:17:08.810Z,71.10
2018-06-04T04:19:39.433Z,71.05
2018-06-04T04:22:10.079Z,71.44
2018-06-04T04:24:40.709Z,71.07
2018-06-04T04:27:11.294Z,71.22
2018-06-04T04:29:41.918Z,70.83
2018-06-04T04:32:12.499Z,71.12
2018-06-04T04:34:43.137Z,70.93
2018-06-04T04:37:13.780Z,70.82
2018-06-04T04:39:44.803Z,70.79
2018-06-04T04:42:15.451Z,70.64
2018-06-04T04:44:46.118Z,70.37
2018-06-04T04:47:16.767Z,70.50
2018-06-04T04:49:47.462Z,70.44
2018-06-04T04:52:18.166Z,69.88
2018-06-04T04:54:48.799Z,70.03
2018-06-04T04:57:20.031Z,69.87
2018-06-04T04:59:50.688Z,69.85
2018-06-04T05:02:21.350Z,69.91
2018-06-04T05:04:52.091Z,70.05
2018-06-04T05:07:22.749Z,69.70
2018-06-04T05:09:53.409Z,69.49
2018-06-04T05:12:23.990Z,68.92
2018-06-04T05:14:54.670Z,68.85
2018-06-04T05:17:25.349Z,68.74
2018-06-04T05:19:56.064Z,68.33
2018-06-04T05:22:26.683Z,68.39
2018-06-04T05:24:57.585Z,68.31
2018-06-04T05:27:28.234Z,67.66
2018-06-04T05:29:58.863Z,67.82
2018-06-04T05:32:29.445Z,67.45
2018-06-04T05:35:00.049Z,67.80
2018-06-04T05:37:30.629Z,67.63
2018-06-04T05:40:01.282Z,67.42
2018-06-04T05:42:32.884Z,66.65
2018-06-04T05:45:03.658Z,66.85
2018-06-04T05:47:34.293Z,67.83
2018-06-04T05:50:05.048Z,67.77
2018-06-04T05:52:35.754Z,67.36
2018-06-04T05:55:06.424Z,67.04
2018-06-04T05:57:37.260Z,66.73
2018-06-04T06:00:07.925Z,65.59
2018-06-04T06:02:38.471Z,65.58
2018-06-04T06:05:09.120Z,65.04
2018-06-04T06:07:39.689Z,64.10
2018-06-04T06:10:10.286Z,64.25
2018-06-04T06:12:40.874Z,64.48
2018-06-04T06:15:11.515Z,64.89
2018-06-04T06:17:42.077Z,65.14
2018-06-04T06:20:12.758Z,65.25
2018-06-04T06:22:43.349Z,65.01
2018-06-04T06:25:14.024Z,64.82
2018-06-04T06:27:44.659Z,64.35
2018-06-04T06:30:15.367Z,64.12
2018-06-04T06:32:45.994Z,63.50
2018-06-04T06:35:16.588Z,63.83
2018-06-04T06:37:47.237Z,63.83
2018-06-04T06:40:17.846Z,63.03
2018-06-04T06:42:48.560Z,62.77
2018-06-04T06:45:19.228Z,62.47
2018-06-04T06:47:49.892Z,62.14
2018-06-04T06:50:51.464Z,61.55
2018-06-04T06:53:22.108Z,62.00
2018-06-04T06:55:52.839Z,60.92
2018-06-04T06:58:23.443Z,60.92
2018-06-04T07:00:54.083Z,60.47
2018-06-04T07:03:24.388Z,59.10
2018-06-04T07:05:54.949Z,58.88
2018-06-04T07:08:25.529Z,58.95
2018-06-04T07:10:56.174Z,58.15
2018-06-04T07:13:26.809Z,57.89
2018-06-04T07:15:57.471Z,57.32
2018-06-04T07:18:28.066Z,57.20
2018-06-04T07:20:58.667Z,57.22
2018-06-04T07:23:29.314Z,57.19
2018-06-04T07:25:59.945Z,56.85
2018-06-04T07:28:30.639Z,56.15
2018-06-04T07:31:01.235Z,55.61
2018-06-04T07:33:31.533Z,54.84
2018-06-04T07:36:12.098Z,53.96
2018-06-04T07:38:42.699Z,54.62
2018-06-04T07:41:13.325Z,53.74
2018-06-04T07:43:43.904Z,53.29
2018-06-04T07:46:14.530Z,52.10
2018-06-04T07:48:45.146Z,50.92
2018-06-04T07:51:15.759Z,51.82
2018-06-04T07:53:46.412Z,51.59
2018-06-04T07:56:17.022Z,51.76
2018-06-04T07:58:47.627Z,52.32
2018-06-04T08:01:18.319Z,50.10
2018-06-04T08:03:48.994Z,49.68
2018-06-04T08:06:19.657Z,49.05
2018-06-04T08:08:50.202Z,49.33
2018-06-04T08:11:20.910Z,50.16
2018-06-04T08:13:51.569Z,47.65
2018-06-04T08:16:22.189Z,48.28
2018-06-04T08:18:52.794Z,48.46
2018-06-04T08:21:23.531Z,45.63
2018-06-04T08:23:54.211Z,44.88
2018-06-04T08:26:24.845Z,44.81
2018-06-04T08:28:55.415Z,43.78
2018-06-04T08:31:26.058Z,44.44
2018-06-04T08:33:56.721Z,44.40
2018-06-04T08:36:27.477Z,43.44
2018-06-04T08:38:58.032Z,42.00
2018-06-04T08:41:28.634Z,42.19
2018-06-04T08:43:59.278Z,40.58
2018-06-04T08:46:29.797Z,41.02
2018-06-04T08:49:00.422Z,40.55
2018-06-04T08:51:31.011Z,41.61
2018-06-04T08:54:01.621Z,41.61
2018-06-04T08:56:32.167Z,40.53
2018-06-04T08:59:02.902Z,40.50
2018-06-04T09:01:33.506Z,39.83
2018-06-04T09:04:04.125Z,39.28
2018-06-04T09:06:34.705Z,38.73
2018-06-04T09:09:07.100Z,38.21
2018-06-04T09:11:37.664Z,38.48
2018-06-04T09:14:08.245Z,38.45
2018-06-04T09:16:38.839Z,37.51
2018-06-04T09:19:09.484Z,35.86
2018-06-04T09:21:40.082Z,36.11
2018-06-04T09:24:10.816Z,36.12
2018-06-04T09:26:41.389Z,36.46
2018-06-04T09:29:11.997Z,36.18
2018-06-04T09:31:42.524Z,37.17
2018-06-04T09:34:13.145Z,36.64
2018-06-04T09:36:43.755Z,36.84
2018-06-04T09:39:14.423Z,37.13
2018-06-04T09:41:45.073Z,37.16
2018-06-04T09:44:15.688Z,37.69
2018-06-04T09:46:46.273Z,36.79
2018-06-04T09:49:16.915Z,37.42
2018-06-04T09:51:47.511Z,38.08
2018-06-04T09:54:18.076Z,37.27
2018-06-04T09:56:48.719Z,36.48
2018-06-04T09:59:19.437Z,36.06
2018-06-04T10:01:50.012Z,35.47
2018-06-04T10:04:20.652Z,34.93
2018-06-04T10:06:51.203Z,34.69
2018-06-04T10:09:22.156Z,34.18
2018-06-04T10:11:52.764Z,34.38
2018-06-04T10:14:58.838Z,34.35
2018-06-04T10:17:29.449Z,34.32
2018-06-04T10:20:00.066Z,33.14
2018-06-04T10:22:30.670Z,34.01
2018-06-04T10:25:01.262Z,32.55
2018-06-04T10:27:31.900Z,31.15
2018-06-04T10:30:02.491Z,32.45
2018-06-04T10:32:33.078Z,33.75
2018-06-04T10:35:03.717Z,34.59
2018-06-04T10:37:34.320Z,34.87
2018-06-04T10:40:04.999Z,35.69
2018-06-04T10:42:42.189Z,34.12
2018-06-04T10:45:12.744Z,33.81
2018-06-04T10:47:43.364Z,33.32
2018-06-04T10:50:13.954Z,33.65
2018-06-04T10:52:44.539Z,32.74
2018-06-04T10:55:15.144Z,32.03
2018-06-04T10:57:45.765Z,32.52
2018-06-04T11:00:16.376Z,32.07
2018-06-04T11:02:46.927Z,33.26
2018-06-04T11:05:17.514Z,33.96
2018-06-04T11:07:48.100Z,33.17
2018-06-04T11:10:18.703Z,32.31
2018-06-04T11:12:49.365Z,32.67
2018-06-04T11:15:19.961Z,32.89
2018-06-04T11:17:50.538Z,33.42
2018-06-04T11:20:21.083Z,32.24
2018-06-04T11:22:51.772Z,32.44
2018-06-04T11:25:22.331Z,32.03
2018-06-04T11:27:52.951Z,32.17
2018-06-04T11:30:23.579Z,32.13
2018-06-04T11:32:54.207Z,32.68
2018-06-04T11:35:24.986Z,32.39
2018-06-04T11:37:55.833Z,32.54
2018-06-04T11:40:26.522Z,31.72
2018-06-04T11:42:57.412Z,32.17
2018-06-04T11:45:28.037Z,33.68
2018-06-04T11:47:58.648Z,34.31
2018-06-04T11:50:29.277Z,33.34
2018-06-04T11:52:59.855Z,34.42
2018-06-04T11:55:30.473Z,32.80
2018-06-04T11:58:01.092Z,32.53
2018-06-04T12:00:31.734Z,32.58
2018-06-04T12:03:02.436Z,34.20
2018-06-04T12:05:33.150Z,34.89
2018-06-04T12:08:03.784Z,35.47
2018-06-04T12:10:34.428Z,35.28
2018-06-04T12:13:05.116Z,34.51
2018-06-04T12:15:35.796Z,34.08
2018-06-04T12:18:06.469Z,32.80
2018-06-04T12:20:37.072Z,33.39
2018-06-04T12:23:07.706Z,34.31
2018-06-04T12:25:38.407Z,34.26
2018-06-04T12:28:09.073Z,34.67
2018-06-04T12:30:39.842Z,33.28
2018-06-04T12:33:10.550Z,34.50
2018-06-04T12:35:41.260Z,35.37
2018-06-04T12:38:11.897Z,35.14
2018-06-04T12:40:42.596Z,35.21
2018-06-04T12:43:13.301Z,34.88
2018-06-04T12:45:43.923Z,35.64
2018-06-04T12:48:14.624Z,35.37
2018-06-04T12:50:45.254Z,35.60
2018-06-04T12:53:15.947Z,35.61
2018-06-04T12:55:46.526Z,36.49
2018-06-04T12:58:17.257Z,35.73
2018-06-04T13:00:47.929Z,34.87
2018-06-04T13:03:18.573Z,34.03
2018-06-04T13:05:49.224Z,34.68
2018-06-04T13:08:19.868Z,33.50
2018-06-04T13:10:50.469Z,33.90
2018-06-04T13:13:21.018Z,34.00
2018-06-04T13:15:51.646Z,31.81
2018-06-04T13:18:22.209Z,32.89
2018-06-04T13:20:52.857Z,32.95
2018-06-04T13:23:23.385Z,34.15
2018-06-04T13:25:54.054Z,34.02
2018-06-04T13:28:24.780Z,34.00
2018-06-04T13:30:55.348Z,33.75
2018-06-04T13:33:25.983Z,33.07
2018-06-04T13:35:56.554Z,32.69
2018-06-04T13:38:27.103Z,32.33
2018-06-04T13:40:57.677Z,30.96
2018-06-04T13:43:28.257Z,31.84
2018-06-04T13:45:58.864Z,33.01
2018-06-04T13:48:29.413Z,32.78
2018-06-04T13:50:59.981Z,32.35
2018-06-04T13:53:30.542Z,32.12
2018-06-04T13:56:01.225Z,32.93
2018-06-04T13:58:31.840Z,32.38
2018-06-04T14:01:02.450Z,32.10
2018-06-04T14:03:33.141Z,31.81
2018-06-04T14:06:03.794Z,31.50
2018-06-04T14:08:34.474Z,32.08
2018-06-04T14:11:05.165Z,31.87
2018-06-04T14:13:35.810Z,32.75
2018-06-04T14:16:06.521Z,33.34
2018-06-04T14:18:37.231Z,34.13
2018-06-04T14:21:08.149Z,34.16
2018-06-04T14:23:38.812Z,34.67
2018-06-04T14:26:09.449Z,35.99
2018-06-04T14:28:40.090Z,36.35
2018-06-04T14:31:10.789Z,36.13
2018-06-04T14:33:41.448Z,35.80
2018-06-04T14:36:12.076Z,35.87
2018-06-04T14:38:42.647Z,36.24
2018-06-04T14:41:13.351Z,36.26
2018-06-04T14:43:43.966Z,36.58
2018-06-04T14:46:14.607Z,36.11
2018-06-04T14:48:45.273Z,36.11
2018-06-04T14:51:15.915Z,35.47
2018-06-04T14:53:46.604Z,34.69
2018-06-04T14:56:17.285Z,34.73
2018-06-04T14:58:47.873Z,35.02
2018-06-04T15:01:18.485Z,35.07
2018-06-04T15:03:49.077Z,34.95
2018-06-04T15:06:19.657Z,34.78
2018-06-04T15:08:50.300Z,35.44
2018-06-04T15:11:21.009Z,34.49
2018-06-04T15:13:51.702Z,34.16
2018-06-04T15:16:22.297Z,34.37
2018-06-04T15:18:52.900Z,34.27
2018-06-04T15:21:23.701Z,35.43
2018-06-04T15:23:54.264Z,34.89
2018-06-04T15:26:24.965Z,35.72
2018-06-04T15:28:55.530Z,34.73
2018-06-04T15:31:26.149Z,34.29
2018-06-04T15:34:27.451Z,34.33
2018-06-04T15:36:58.101Z,34.89
2018-06-04T15:39:28.712Z,35.25
2018-06-04T15:41:59.398Z,35.87
2018-06-04T15:44:30.013Z,36.35
2018-06-04T15:47:00.569Z,36.69
2018-06-04T15:49:31.141Z,36.50
2018-06-04T15:52:01.928Z,36.58
2018-06-04T15:54:32.523Z,37.69
2018-06-04T15:57:03.126Z,37.47
2018-06-04T15:59:33.746Z,37.52
2018-06-04T16:02:05.029Z,37.97
2018-06-04T16:04:35.649Z,37.19
2018-06-04T16:07:06.343Z,38.12
2018-06-04T16:09:37.113Z,37.67
2018-06-04T16:12:07.750Z,38.42
2018-06-04T16:14:38.315Z,38.44
2018-06-04T16:17:08.927Z,38.53
2018-06-04T16:19:39.560Z,38.73
2018-06-04T16:22:10.253Z,38.26
2018-06-04T16:24:40.844Z,38.33
2018-06-04T16:27:11.470Z,38.04
2018-06-04T16:29:42.055Z,38.90
2018-06-04T16:32:12.691Z,39.37
2018-06-04T16:34:43.304Z,39.68
2018-06-04T16:37:14.011Z,39.72
2018-06-04T16:39:44.670Z,40.79
2018-06-04T16:42:15.294Z,40.42
2018-06-04T16:44:45.956Z,40.98
2018-06-04T16:47:16.540Z,41.10
2018-06-04T16:49:47.236Z,41.10
2018-06-04T16:52:17.916Z,41.54
2018-06-04T16:54:48.532Z,41.57
2018-06-04T16:57:19.073Z,41.29
2018-06-04T16:59:49.692Z,41.12
2018-06-04T17:02:20.253Z,41.17
2018-06-04T17:04:50.580Z,41.27
2018-06-04T17:07:21.081Z,41.60
2018-06-04T17:09:51.674Z,41.75
2018-06-04T17:12:22.310Z,41.77
2018-06-04T17:14:52.887Z,41.91
2018-06-04T17:17:24.356Z,42.19
2018-06-04T17:19:54.989Z,42.08
2018-06-04T17:22:25.602Z,42.21
2018-06-04T17:24:56.179Z,43.04
2018-06-04T17:27:26.842Z,43.75
2018-06-04T17:29:57.443Z,43.83
2018-06-04T17:32:28.067Z,44.10
2018-06-04T17:34:58.693Z,43.71
2018-06-04T17:37:29.285Z,43.90
2018-06-04T17:39:59.924Z,44.09
2018-06-04T17:42:30.587Z,44.09
2018-06-04T17:45:01.241Z,44.53
2018-06-04T17:47:32.140Z,45.11
2018-06-04T17:50:02.768Z,44.87
2018-06-04T17:52:33.385Z,45.15
2018-06-04T17:55:04.062Z,44.83
2018-06-04T17:57:34.650Z,44.94
2018-06-04T18:00:05.711Z,45.46
2018-06-04T18:02:36.601Z,45.38
2018-06-04T18:05:07.224Z,45.12
2018-06-04T18:07:37.984Z,45.98
2018-06-04T18:10:08.564Z,45.63
2018-06-04T18:12:39.222Z,46.03
2018-06-04T18:15:09.853Z,46.68
2018-06-04T18:17:40.608Z,46.43
2018-06-04T18:20:11.310Z,46.09
2018-06-04T18:22:42.125Z,46.75
2018-06-04T18:25:12.825Z,46.86
2018-06-04T18:27:43.508Z,46.53
2018-06-04T18:30:14.108Z,47.49
2018-06-04T18:32:44.666Z,47.63
2018-06-04T18:35:15.269Z,47.99
2018-06-04T18:37:45.870Z,47.90
2018-06-04T18:40:16.558Z,48.42
2018-06-04T18:42:46.820Z,48.61
2018-06-04T18:45:17.336Z,48.40
2018-06-04T18:47:47.937Z,48.32
2018-06-04T18:50:18.595Z,48.65
2018-06-04T18:52:49.191Z,49.20
2018-06-04T18:55:19.844Z,49.18
2018-06-04T18:57:50.121Z,49.42
2018-06-04T19:00:20.659Z,49.73
2018-06-04T19:02:51.274Z,49.87
2018-06-04T19:05:21.865Z,50.46
2018-06-04T19:07:52.470Z,50.47
2018-06-04T19:10:23.098Z,50.61
2018-06-04T19:12:53.676Z,50.65
2018-06-04T19:15:24.309Z,51.33
2018-06-04T19:17:54.891Z,51.56
2018-06-04T19:20:25.493Z,51.72
2018-06-04T19:22:56.085Z,51.50
2018-06-04T19:25:26.682Z,52.30
2018-06-04T19:27:57.284Z,52.10
2018-06-04T19:30:27.922Z,52.78
2018-06-04T19:32:58.525Z,52.89
2018-06-04T19:35:29.105Z,52.90
2018-06-04T19:37:59.737Z,53.56
2018-06-04T19:40:30.388Z,53.65
2018-06-04T19:43:01.054Z,54.03
2018-06-04T19:45:31.807Z,54.69
2018-06-04T19:48:02.410Z,54.81
2018-06-04T19:50:33.077Z,55.37
2018-06-04T19:53:03.772Z,56.20
2018-06-04T19:55:34.363Z,56.55
2018-06-04T19:58:05.140Z,56.79
2018-06-04T20:00:35.753Z,57.17
2018-06-04T20:03:06.711Z,57.44
2018-06-04T20:05:37.377Z,57.30
2018-06-04T20:08:07.718Z,57.04
2018-06-04T20:10:38.221Z,56.92
2018-06-04T20:13:08.857Z,56.82
2018-06-04T20:15:39.443Z,56.78
2018-06-04T20:18:10.093Z,56.77
2018-06-04T20:20:40.675Z,56.81
2018-06-04T20:23:11.352Z,57.23
2018-06-04T20:25:41.961Z,57.32
2018-06-04T20:28:12.569Z,56.85
2018-06-04T20:30:43.204Z,57.26
2018-06-04T20:33:13.768Z,57.74
2018-06-04T20:35:44.360Z,57.67
2018-06-04T20:38:14.988Z,57.31
2018-06-04T20:40:45.636Z,57.38
2018-06-04T20:43:16.264Z,57.71
2018-06-04T20:45:46.943Z,57.71
2018-06-04T20:48:17.524Z,58.10
2018-06-04T20:50:48.190Z,58.27
2018-06-04T20:53:18.829Z,58.12
2018-06-04T20:55:49.555Z,58.32
2018-06-04T20:58:20.182Z,58.92
2018-06-04T21:00:50.850Z,59.25
2018-06-04T21:03:21.555Z,59.59
2018-06-04T21:05:53.479Z,59.32
2018-06-04T21:08:24.110Z,59.40
2018-06-04T21:10:56.827Z,59.65
2018-06-04T21:13:27.535Z,59.71
2018-06-04T21:15:58.190Z,60.39
2018-06-04T21:18:28.927Z,60.13
2018-06-04T21:20:59.572Z,59.97
2018-06-04T21:23:30.163Z,60.42
2018-06-04T21:26:00.801Z,60.50
2018-06-04T21:28:31.533Z,60.46
2018-06-04T21:31:02.142Z,60.54
2018-06-04T21:33:32.823Z,60.42
2018-06-04T21:36:03.526Z,61.18
2018-06-04T21:38:34.342Z,61.02
2018-06-04T21:41:05.077Z,61.80
2018-06-04T21:43:35.718Z,61.28
2018-06-04T21:46:06.416Z,61.61
2018-06-04T21:48:37.130Z,61.73
2018-06-04T21:51:07.894Z,61.95
2018-06-04T21:53:38.471Z,61.91
2018-06-04T21:56:09.132Z,61.93
2018-06-04T21:58:39.811Z,61.93
2018-06-04T22:01:10.539Z,62.17
2018-06-04T22:03:41.276Z,62.26
2018-06-04T22:06:11.955Z,62.38
2018-06-04T22:08:42.721Z,62.82
2018-06-04T22:11:13.377Z,62.83
2018-06-04T22:13:44.630Z,62.52
2018-06-04T22:16:15.353Z,63.13
2018-06-04T22:18:46.065Z,62.89
2018-06-04T22:21:16.787Z,63.30
2018-06-04T22:23:47.398Z,63.29
2018-06-04T22:26:18.018Z,63.49
2018-06-04T22:28:48.659Z,63.35
2018-06-04T22:31:19.283Z,63.44
2018-06-04T22:33:49.940Z,63.65
2018-06-04T22:36:20.552Z,63.79
2018-06-04T22:38:51.260Z,64.04
2018-06-04T22:41:21.848Z,64.56
2018-06-04T22:43:52.475Z,64.20
2018-06-04T22:46:23.146Z,64.08
2018-06-04T22:48:53.882Z,64.51
2018-06-04T22:51:24.218Z,64.42
2018-06-04T22:53:54.766Z,64.63
2018-06-04T22:56:25.476Z,64.57
2018-06-04T22:58:56.254Z,64.31
2018-06-04T23:01:26.893Z,64.80
2018-06-04T23:03:57.782Z,64.76
2018-06-04T23:06:28.551Z,65.06
2018-06-04T23:08:59.332Z,65.14
2018-06-04T23:11:29.987Z,65.21
2018-06-04T23:14:00.716Z,65.05
2018-06-04T23:16:31.435Z,65.25
2018-06-04T23:19:02.179Z,65.32
2018-06-04T23:21:32.918Z,65.53
2018-06-04T23:24:03.668Z,65.73
2018-06-04T23:26:34.332Z,65.57
2018-06-04T23:29:05.101Z,65.74
2018-06-04T23:31:35.741Z,65.64
2018-06-04T23:34:06.471Z,65.59
2018-06-04T23:36:37.222Z,66.02
2018-06-04T23:39:09.512Z,66.00
2018-06-04T23:41:40.237Z,66.10
2018-06-04T23:44:10.940Z,65.74
2018-06-04T23:46:42.306Z,65.85
2018-06-04T23:49:13.248Z,65.99
2018-06-04T23:51:44.042Z,66.02
2018-06-04T23:54:14.893Z,66.49
2018-06-04T23:56:45.758Z,65.96
2018-06-04T23:59:16.716Z,66.48
